LSGGLYNI

Guest
Details From LSGG - Geneva
To LYNI - NIS
Flight Number -
Tags decoded
Created
Modified
Stats Distance 698 nm / 1,292 km
Max Altitude 0 ft / 0 m
Waypoints 4
Social Downloads 0
Likes 0
Share VATSIM

Download

Looking for another format? Having issues loading an existing format? Contact us
Advertisement - Login to hide

Notes

Requested: LSGG MOLUS JST LYNI

Route

LSGG MOLUS JST LYNI

ID Type Via Altitude Latitude Longitude Leg Dist Tot Dist Heading (true) Name
O LSGG APT - 0 ft / 0 m 46.23775˚ 6.10617˚ - 0 nm - Geneva
MOLUS FIX - 0 ft / 0 m 46.44389˚ 6.67944˚ 26 nm 26 nm 62° / 63° -
JST NDB - 0 ft / 0 m 43.42461˚ 21.63131˚ 659 nm 686 nm 101° / 111° NIS NDB
O LYNI APT - 0 ft / 0 m 43.33675˚ 21.85542˚ 11 nm 697 nm 118° / 118° NIS

Altitude Profile

Advertisement - Login to hide

Weather


0- 5 10 15 20 25 30 35+ Temperature / ° C

Clouds and Precipitation
Forecast for 2018-05-23 12:00 UTC. Updated 5 minutes ago

Ground ~20,000 ft ~40,000 ft Winds

LSGG

Details ICAO LSGG (GVA)
Name Geneva
Region Switzerland
Timezone Europe/Zurich (UTC+2.0)
Stats Elevation 1,410 ft / 430 m (AMSL)
Location 46.237755° 6.106173°
Runways 2
Magnetic Variation 1.790° E

METAR

LSGG 230920Z 03002KT 9999 FEW013 SCT060 BKN080 16/13 Q1018 NOSIG

Decode

TAF

TAF TAF LSGG 230825Z 2309/2415 VRB03KT 9999 FEW015 SCT050 BKN090 TX21/2315Z TN12/2405Z TX25/2415Z PROB40 TEMPO 2310/2317 SHRA PROB30 TEMPO 2311/2316 VRB10G20KT 4900 TSRA SCT040CB BECMG 2319/2321 CAVOK BECMG 2407/2409 9999 FEW040

Decode

Departure Runways

ID Width Length Bearing (true) Bearing (mag) Surface Threshold Offset Overrun Length
05 180 ft / 55 m 12,796 ft / 3,900 m 45.43° 43.64° Concrete 1,079 ft / 329 m 66 ft / 20 m
05L 98 ft / 30 m 2,701 ft / 823 m 45.44° 43.65° Grass 610 ft / 186 m 0 ft / 0 m
23 180 ft / 55 m 12,796 ft / 3,900 m 225.45° 223.66° Concrete 0 ft / 0 m 66 ft / 20 m
23R 98 ft / 30 m 2,701 ft / 823 m 225.45° 223.66° Grass 997 ft / 304 m 0 ft / 0 m

LYNI

Details ICAO LYNI (INI)
Name NIS
Region Serbia and Montenegro
Timezone Europe/Belgrade (UTC+2.0)
Stats Elevation 648 ft / 198 m (AMSL)
Location 43.336748° 21.855417°
Runways 1
Magnetic Variation 4.813° E

METAR

LYNI 230900Z 11007KT 040V160 9999 FEW030 25/15 Q1018 NOSIG

Decode

TAF

TAF LYNI 230500Z 2306/2406 06005KT 9999 SCT040 TX24/2313Z TN14/2403Z TEMPO 2306/2308 2000 BR BKN006 TEMPO 2311/2318 VRB15G25KT 3000 TSRA SCT015 BKN030CB BECMG 2322/2324 1500 BR TEMPO 2401/2405 0600 FG

Decode

Destination Runways

ID Width Length Bearing (true) Bearing (mag) Surface Threshold Offset Overrun Length
11 148 ft / 45 m 8,187 ft / 2,495 m 113.61° 108.80° Asphalt 719 ft / 219 m 0 ft / 0 m
29 148 ft / 45 m 8,187 ft / 2,495 m 293.63° 288.82° Asphalt 985 ft / 300 m 0 ft / 0 m

Popular Alternatives